sensor_id;sensor_type;location;lat;lon;timestamp;temperature;humidity
36990;DHT22;22898;52.102;5.776;2022-08-01T00:01:54;26.40;95.50
36990;DHT22;22898;52.102;5.776;2022-08-01T00:04:20;26.40;95.50
36990;DHT22;22898;52.102;5.776;2022-08-01T00:06:45;26.60;95.10
36990;DHT22;22898;52.102;5.776;2022-08-01T00:09:11;26.60;95.10
36990;DHT22;22898;52.102;5.776;2022-08-01T00:11:36;26.60;95.20
36990;DHT22;22898;52.102;5.776;2022-08-01T00:14:02;26.60;95.00
36990;DHT22;22898;52.102;5.776;2022-08-01T00:16:28;26.60;95.10
36990;DHT22;22898;52.102;5.776;2022-08-01T00:18:54;26.80;94.90
36990;DHT22;22898;52.102;5.776;2022-08-01T00:21:20;26.80;94.70
36990;DHT22;22898;52.102;5.776;2022-08-01T00:23:46;26.80;94.70
36990;DHT22;22898;52.102;5.776;2022-08-01T00:26:12;26.70;94.80
36990;DHT22;22898;52.102;5.776;2022-08-01T00:28:38;26.70;94.70
36990;DHT22;22898;52.102;5.776;2022-08-01T00:31:04;26.70;94.80
36990;DHT22;22898;52.102;5.776;2022-08-01T00:33:30;26.70;94.90
36990;DHT22;22898;52.102;5.776;2022-08-01T00:35:55;26.70;94.80
36990;DHT22;22898;52.102;5.776;2022-08-01T00:38:21;26.80;94.70
36990;DHT22;22898;52.102;5.776;2022-08-01T00:40:47;26.80;94.50
36990;DHT22;22898;52.102;5.776;2022-08-01T00:43:13;26.60;95.00
36990;DHT22;22898;52.102;5.776;2022-08-01T00:45:39;26.40;95.10
36990;DHT22;22898;52.102;5.776;2022-08-01T00:48:05;26.10;95.70
36990;DHT22;22898;52.102;5.776;2022-08-01T00:50:30;25.90;96.10
36990;DHT22;22898;52.102;5.776;2022-08-01T00:52:58;25.80;96.30
36990;DHT22;22898;52.102;5.776;2022-08-01T00:55:24;26.00;95.90
36990;DHT22;22898;52.102;5.776;2022-08-01T00:57:50;26.20;95.70
36990;DHT22;22898;52.102;5.776;2022-08-01T01:00:15;26.30;95.50
36990;DHT22;22898;52.102;5.776;2022-08-01T01:02:41;26.40;95.20
36990;DHT22;22898;52.102;5.776;2022-08-01T01:05:07;26.20;95.50
36990;DHT22;22898;52.102;5.776;2022-08-01T01:08:11;26.20;95.60
36990;DHT22;22898;52.102;5.776;2022-08-01T01:10:52;26.20;95.50
36990;DHT22;22898;52.102;5.776;2022-08-01T01:13:43;26.20;95.60
36990;DHT22;22898;52.102;5.776;2022-08-01T01:16:17;26.30;95.40
36990;DHT22;22898;52.102;5.776;2022-08-01T01:18:47;26.20;95.40
36990;DHT22;22898;52.102;5.776;2022-08-01T01:24:04;26.10;95.60
36990;DHT22;22898;52.102;5.776;2022-08-01T01:26:57;26.10;95.60
36990;DHT22;22898;52.102;5.776;2022-08-01T01:29:34;26.20;95.50
36990;DHT22;22898;52.102;5.776;2022-08-01T01:32:04;26.00;95.70
36990;DHT22;22898;52.102;5.776;2022-08-01T01:34:34;26.10;95.70
36990;DHT22;22898;52.102;5.776;2022-08-01T01:37:02;26.10;95.60
36990;DHT22;22898;52.102;5.776;2022-08-01T01:39:29;26.10;95.70
36990;DHT22;22898;52.102;5.776;2022-08-01T01:41:57;26.10;95.50
36990;DHT22;22898;52.102;5.776;2022-08-01T01:44:25;26.10;95.80
36990;DHT22;22898;52.102;5.776;2022-08-01T01:46:52;26.10;95.70
36990;DHT22;22898;52.102;5.776;2022-08-01T01:49:21;26.10;95.90
36990;DHT22;22898;52.102;5.776;2022-08-01T01:51:50;26.10;95.80
36990;DHT22;22898;52.102;5.776;2022-08-01T01:54:17;26.00;96.00
36990;DHT22;22898;52.102;5.776;2022-08-01T02:00:18;25.90;96.80
36990;DHT22;22898;52.102;5.776;2022-08-01T02:02:45;25.80;96.30
36990;DHT22;22898;52.102;5.776;2022-08-01T02:05:30;25.80;96.40
36990;DHT22;22898;52.102;5.776;2022-08-01T02:08:23;25.80;96.60
36990;DHT22;22898;52.102;5.776;2022-08-01T02:10:52;25.70;96.80
36990;DHT22;22898;52.102;5.776;2022-08-01T02:23:10;25.40;97.50
36990;DHT22;22898;52.102;5.776;2022-08-01T02:28:22;25.10;98.00
36990;DHT22;22898;52.102;5.776;2022-08-01T02:30:59;25.30;97.60
36990;DHT22;22898;52.102;5.776;2022-08-01T02:37:00;25.50;97.20
36990;DHT22;22898;52.102;5.776;2022-08-01T02:39:30;25.50;97.20
36990;DHT22;22898;52.102;5.776;2022-08-01T02:55:52;25.80;96.80
36990;DHT22;22898;52.102;5.776;2022-08-01T03:02:00;25.60;96.90
36990;DHT22;22898;52.102;5.776;2022-08-01T03:25:04;25.10;97.80
36990;DHT22;22898;52.102;5.776;2022-08-01T03:27:32;25.20;97.80
36990;DHT22;22898;52.102;5.776;2022-08-01T03:30:03;25.40;97.30
36990;DHT22;22898;52.102;5.776;2022-08-01T03:32:30;25.50;97.00
36990;DHT22;22898;52.102;5.776;2022-08-01T03:34:56;25.60;96.90
36990;DHT22;22898;52.102;5.776;2022-08-01T03:38:10;25.60;96.90
36990;DHT22;22898;52.102;5.776;2022-08-01T03:40:53;25.80;96.70
36990;DHT22;22898;52.102;5.776;2022-08-01T03:43:33;25.90;96.40
36990;DHT22;22898;52.102;5.776;2022-08-01T03:46:20;25.90;96.30
36990;DHT22;22898;52.102;5.776;2022-08-01T03:48:55;25.90;96.20
36990;DHT22;22898;52.102;5.776;2022-08-01T03:51:42;25.90;96.50
36990;DHT22;22898;52.102;5.776;2022-08-01T03:54:56;25.90;96.30
36990;DHT22;22898;52.102;5.776;2022-08-01T03:57:10;25.60;96.70
36990;DHT22;22898;52.102;5.776;2022-08-01T03:59:37;25.50;96.90
36990;DHT22;22898;52.102;5.776;2022-08-01T04:02:04;25.40;97.20
36990;DHT22;22898;52.102;5.776;2022-08-01T04:10:38;25.80;96.80
36990;DHT22;22898;52.102;5.776;2022-08-01T04:13:59;25.80;96.50
36990;DHT22;22898;52.102;5.776;2022-08-01T04:17:30;25.70;97.10
36990;DHT22;22898;52.102;5.776;2022-08-01T04:20:25;25.50;96.90
36990;DHT22;22898;52.102;5.776;2022-08-01T04:23:24;25.30;97.20
36990;DHT22;22898;52.102;5.776;2022-08-01T04:26:11;25.30;97.50
36990;DHT22;22898;52.102;5.776;2022-08-01T04:28:39;25.50;97.30
36990;DHT22;22898;52.102;5.776;2022-08-01T04:34:35;25.60;97.00
36990;DHT22;22898;52.102;5.776;2022-08-01T04:47:20;25.60;97.00
36990;DHT22;22898;52.102;5.776;2022-08-01T05:06:34;25.40;97.10
36990;DHT22;22898;52.102;5.776;2022-08-01T05:08:59;25.00;97.90
36990;DHT22;22898;52.102;5.776;2022-08-01T05:11:25;24.60;98.30
36990;DHT22;22898;52.102;5.776;2022-08-01T05:13:53;24.40;98.60
36990;DHT22;22898;52.102;5.776;2022-08-01T05:16:19;24.10;98.50
36990;DHT22;22898;52.102;5.776;2022-08-01T05:18:47;23.80;99.70
36990;DHT22;22898;52.102;5.776;2022-08-01T05:21:13;23.90;98.80
36990;DHT22;22898;52.102;5.776;2022-08-01T05:23:39;24.10;98.60
36990;DHT22;22898;52.102;5.776;2022-08-01T05:26:05;23.90;98.90
36990;DHT22;22898;52.102;5.776;2022-08-01T05:28:30;23.80;98.90
36990;DHT22;22898;52.102;5.776;2022-08-01T05:30:56;23.40;99.90
36990;DHT22;22898;52.102;5.776;2022-08-01T05:33:22;23.70;99.40
36990;DHT22;22898;52.102;5.776;2022-08-01T05:35:48;23.70;99.60
36990;DHT22;22898;52.102;5.776;2022-08-01T05:38:13;24.00;99.00
36990;DHT22;22898;52.102;5.776;2022-08-01T05:40:39;24.10;98.50
36990;DHT22;22898;52.102;5.776;2022-08-01T05:43:04;24.40;97.90
36990;DHT22;22898;52.102;5.776;2022-08-01T05:45:30;24.70;97.40
36990;DHT22;22898;52.102;5.776;2022-08-01T05:47:55;24.60;97.30
36990;DHT22;22898;52.102;5.776;2022-08-01T05:50:21;24.60;97.50
36990;DHT22;22898;52.102;5.776;2022-08-01T05:52:47;24.70;97.00
36990;DHT22;22898;52.102;5.776;2022-08-01T05:55:12;24.70;96.80
36990;DHT22;22898;52.102;5.776;2022-08-01T05:57:38;24.70;97.10
36990;DHT22;22898;52.102;5.776;2022-08-01T06:00:04;24.90;97.10
36990;DHT22;22898;52.102;5.776;2022-08-01T06:02:30;24.90;96.80
36990;DHT22;22898;52.102;5.776;2022-08-01T06:04:56;25.10;96.70
36990;DHT22;22898;52.102;5.776;2022-08-01T06:07:21;25.20;96.30
36990;DHT22;22898;52.102;5.776;2022-08-01T06:09:47;25.50;96.10
36990;DHT22;22898;52.102;5.776;2022-08-01T06:12:13;25.60;95.80
36990;DHT22;22898;52.102;5.776;2022-08-01T06:14:38;25.80;95.70
36990;DHT22;22898;52.102;5.776;2022-08-01T06:17:04;25.70;95.40
36990;DHT22;22898;52.102;5.776;2022-08-01T06:19:29;25.70;95.50
36990;DHT22;22898;52.102;5.776;2022-08-01T06:21:55;25.60;95.50
36990;DHT22;22898;52.102;5.776;2022-08-01T06:24:21;25.70;95.60
36990;DHT22;22898;52.102;5.776;2022-08-01T06:26:48;26.00;95.10
36990;DHT22;22898;52.102;5.776;2022-08-01T06:29:14;26.00;94.90
36990;DHT22;22898;52.102;5.776;2022-08-01T06:31:40;25.90;95.30
36990;DHT22;22898;52.102;5.776;2022-08-01T06:34:05;26.20;94.80
36990;DHT22;22898;52.102;5.776;2022-08-01T06:36:31;26.10;94.70
36990;DHT22;22898;52.102;5.776;2022-08-01T06:38:56;26.00;94.70
36990;DHT22;22898;52.102;5.776;2022-08-01T06:41:22;26.00;94.80
36990;DHT22;22898;52.102;5.776;2022-08-01T06:43:48;25.90;94.80
36990;DHT22;22898;52.102;5.776;2022-08-01T06:46:14;26.00;94.40
36990;DHT22;22898;52.102;5.776;2022-08-01T06:48:40;25.80;94.80
36990;DHT22;22898;52.102;5.776;2022-08-01T06:51:05;25.80;95.00
36990;DHT22;22898;52.102;5.776;2022-08-01T06:53:35;25.90;94.80
36990;DHT22;22898;52.102;5.776;2022-08-01T06:56:01;26.20;94.50
36990;DHT22;22898;52.102;5.776;2022-08-01T06:58:27;26.10;94.70
36990;DHT22;22898;52.102;5.776;2022-08-01T07:00:52;25.90;94.10
36990;DHT22;22898;52.102;5.776;2022-08-01T07:03:18;25.90;94.70
36990;DHT22;22898;52.102;5.776;2022-08-01T07:05:43;25.50;95.10
36990;DHT22;22898;52.102;5.776;2022-08-01T07:08:12;25.40;95.40
36990;DHT22;22898;52.102;5.776;2022-08-01T07:10:38;25.60;95.20
36990;DHT22;22898;52.102;5.776;2022-08-01T07:13:03;25.80;94.60
36990;DHT22;22898;52.102;5.776;2022-08-01T07:15:29;25.80;94.90
36990;DHT22;22898;52.102;5.776;2022-08-01T07:17:54;26.10;94.30
36990;DHT22;22898;52.102;5.776;2022-08-01T07:20:21;26.50;93.80
36990;DHT22;22898;52.102;5.776;2022-08-01T07:22:47;26.40;92.90
36990;DHT22;22898;52.102;5.776;2022-08-01T07:25:12;26.50;93.30
36990;DHT22;22898;52.102;5.776;2022-08-01T07:27:38;26.30;93.40
36990;DHT22;22898;52.102;5.776;2022-08-01T07:30:05;26.30;93.70
36990;DHT22;22898;52.102;5.776;2022-08-01T07:32:30;26.30;92.90
36990;DHT22;22898;52.102;5.776;2022-08-01T07:34:56;26.20;93.60
36990;DHT22;22898;52.102;5.776;2022-08-01T07:40:19;26.30;92.80
36990;DHT22;22898;52.102;5.776;2022-08-01T07:42:45;26.00;93.30
36990;DHT22;22898;52.102;5.776;2022-08-01T07:45:12;26.00;93.40
36990;DHT22;22898;52.102;5.776;2022-08-01T07:47:38;25.90;93.40
36990;DHT22;22898;52.102;5.776;2022-08-01T07:50:07;25.90;93.80
36990;DHT22;22898;52.102;5.776;2022-08-01T07:52:36;26.00;93.90
36990;DHT22;22898;52.102;5.776;2022-08-01T07:55:02;26.20;93.90
36990;DHT22;22898;52.102;5.776;2022-08-01T07:57:27;26.10;94.00
36990;DHT22;22898;52.102;5.776;2022-08-01T07:59:53;25.80;94.60
36990;DHT22;22898;52.102;5.776;2022-08-01T08:02:19;25.70;94.80
36990;DHT22;22898;52.102;5.776;2022-08-01T08:04:44;25.50;95.30
36990;DHT22;22898;52.102;5.776;2022-08-01T08:07:10;25.80;95.00
36990;DHT22;22898;52.102;5.776;2022-08-01T08:09:35;25.70;95.20
36990;DHT22;22898;52.102;5.776;2022-08-01T08:12:01;25.60;95.40
36990;DHT22;22898;52.102;5.776;2022-08-01T08:14:27;25.60;95.30
36990;DHT22;22898;52.102;5.776;2022-08-01T08:16:52;25.30;95.90
36990;DHT22;22898;52.102;5.776;2022-08-01T08:19:18;25.20;96.00
36990;DHT22;22898;52.102;5.776;2022-08-01T08:21:44;25.00;96.40
36990;DHT22;22898;52.102;5.776;2022-08-01T08:24:10;25.20;96.10
36990;DHT22;22898;52.102;5.776;2022-08-01T08:26:48;25.40;95.50
36990;DHT22;22898;52.102;5.776;2022-08-01T08:29:15;25.50;95.20
36990;DHT22;22898;52.102;5.776;2022-08-01T08:31:41;25.50;95.40
36990;DHT22;22898;52.102;5.776;2022-08-01T08:34:06;25.60;94.90
36990;DHT22;22898;52.102;5.776;2022-08-01T08:36:32;25.20;95.50
36990;DHT22;22898;52.102;5.776;2022-08-01T08:38:59;24.90;96.10
36990;DHT22;22898;52.102;5.776;2022-08-01T08:41:31;24.50;96.50
36990;DHT22;22898;52.102;5.776;2022-08-01T08:43:57;23.60;98.70
36990;DHT22;22898;52.102;5.776;2022-08-01T08:46:27;23.20;99.50
36990;DHT22;22898;52.102;5.776;2022-08-01T08:48:54;23.30;99.30
36990;DHT22;22898;52.102;5.776;2022-08-01T08:51:21;23.30;99.10
36990;DHT22;22898;52.102;5.776;2022-08-01T08:53:49;23.30;99.60
36990;DHT22;22898;52.102;5.776;2022-08-01T08:56:17;23.60;98.60
36990;DHT22;22898;52.102;5.776;2022-08-01T08:58:44;23.70;97.90
36990;DHT22;22898;52.102;5.776;2022-08-01T09:01:10;23.90;98.10
36990;DHT22;22898;52.102;5.776;2022-08-01T09:03:38;23.90;96.90
36990;DHT22;22898;52.102;5.776;2022-08-01T09:06:04;23.90;96.80
36990;DHT22;22898;52.102;5.776;2022-08-01T09:08:30;23.90;96.40
36990;DHT22;22898;52.102;5.776;2022-08-01T09:10:56;24.00;96.50
36990;DHT22;22898;52.102;5.776;2022-08-01T09:13:21;24.20;96.80
36990;DHT22;22898;52.102;5.776;2022-08-01T09:15:53;24.40;96.10
36990;DHT22;22898;52.102;5.776;2022-08-01T09:23:37;24.90;93.60
36990;DHT22;22898;52.102;5.776;2022-08-01T09:26:29;25.20;92.50
36990;DHT22;22898;52.102;5.776;2022-08-01T09:28:54;25.50;91.70
36990;DHT22;22898;52.102;5.776;2022-08-01T09:31:20;25.80;91.80
36990;DHT22;22898;52.102;5.776;2022-08-01T09:33:51;25.90;90.70
36990;DHT22;22898;52.102;5.776;2022-08-01T09:36:17;26.20;90.00
36990;DHT22;22898;52.102;5.776;2022-08-01T09:38:44;26.30;89.90
36990;DHT22;22898;52.102;5.776;2022-08-01T09:41:09;26.50;88.70
36990;DHT22;22898;52.102;5.776;2022-08-01T09:43:37;26.30;90.20
36990;DHT22;22898;52.102;5.776;2022-08-01T09:46:11;26.30;90.20
36990;DHT22;22898;52.102;5.776;2022-08-01T09:48:37;26.70;90.00
36990;DHT22;22898;52.102;5.776;2022-08-01T09:51:05;26.70;89.00
36990;DHT22;22898;52.102;5.776;2022-08-01T09:53:41;26.50;89.70
36990;DHT22;22898;52.102;5.776;2022-08-01T09:56:12;26.70;90.00
36990;DHT22;22898;52.102;5.776;2022-08-01T09:59:03;26.30;90.50
36990;DHT22;22898;52.102;5.776;2022-08-01T10:01:43;25.60;91.40
36990;DHT22;22898;52.102;5.776;2022-08-01T10:04:17;25.80;90.70
36990;DHT22;22898;52.102;5.776;2022-08-01T10:06:46;26.10;90.50
36990;DHT22;22898;52.102;5.776;2022-08-01T10:09:15;26.60;89.20
36990;DHT22;22898;52.102;5.776;2022-08-01T10:11:42;26.90;88.30
36990;DHT22;22898;52.102;5.776;2022-08-01T10:14:08;27.10;87.90
36990;DHT22;22898;52.102;5.776;2022-08-01T10:16:35;27.20;87.20
36990;DHT22;22898;52.102;5.776;2022-08-01T10:19:03;26.90;87.60
36990;DHT22;22898;52.102;5.776;2022-08-01T10:21:32;25.90;88.90
36990;DHT22;22898;52.102;5.776;2022-08-01T10:23:58;25.60;90.10
36990;DHT22;22898;52.102;5.776;2022-08-01T10:26:26;25.90;89.10
36990;DHT22;22898;52.102;5.776;2022-08-01T10:28:54;25.90;88.30
36990;DHT22;22898;52.102;5.776;2022-08-01T10:31:20;26.00;88.10
36990;DHT22;22898;52.102;5.776;2022-08-01T10:33:45;26.30;87.70
36990;DHT22;22898;52.102;5.776;2022-08-01T10:36:11;26.90;86.60
36990;DHT22;22898;52.102;5.776;2022-08-01T10:38:39;27.20;86.70
36990;DHT22;22898;52.102;5.776;2022-08-01T10:41:05;27.50;84.70
36990;DHT22;22898;52.102;5.776;2022-08-01T10:43:30;27.70;84.80
36990;DHT22;22898;52.102;5.776;2022-08-01T10:45:56;27.50;84.20
36990;DHT22;22898;52.102;5.776;2022-08-01T10:51:07;27.00;85.70
36990;DHT22;22898;52.102;5.776;2022-08-01T10:53:36;27.40;81.90
36990;DHT22;22898;52.102;5.776;2022-08-01T10:56:05;26.90;84.20
36990;DHT22;22898;52.102;5.776;2022-08-01T10:58:38;27.10;82.20
36990;DHT22;22898;52.102;5.776;2022-08-01T11:03:46;27.60;79.80
36990;DHT22;22898;52.102;5.776;2022-08-01T11:06:25;28.00;79.20
36990;DHT22;22898;52.102;5.776;2022-08-01T11:08:53;28.00;79.50
36990;DHT22;22898;52.102;5.776;2022-08-01T11:11:20;27.30;80.80
36990;DHT22;22898;52.102;5.776;2022-08-01T11:18:52;26.20;83.20
36990;DHT22;22898;52.102;5.776;2022-08-01T11:21:17;26.00;83.90
36990;DHT22;22898;52.102;5.776;2022-08-01T11:23:49;26.30;82.30
36990;DHT22;22898;52.102;5.776;2022-08-01T11:26:15;26.50;82.80
36990;DHT22;22898;52.102;5.776;2022-08-01T11:28:42;26.80;81.70
36990;DHT22;22898;52.102;5.776;2022-08-01T11:39:04;26.80;81.00
36990;DHT22;22898;52.102;5.776;2022-08-01T11:41:36;26.20;83.60
36990;DHT22;22898;52.102;5.776;2022-08-01T11:44:16;26.20;84.70
36990;DHT22;22898;52.102;5.776;2022-08-01T11:54:28;27.50;78.80
36990;DHT22;22898;52.102;5.776;2022-08-01T11:57:06;27.40;79.10
36990;DHT22;22898;52.102;5.776;2022-08-01T11:59:37;27.40;78.50
36990;DHT22;22898;52.102;5.776;2022-08-01T12:02:03;27.20;78.60
36990;DHT22;22898;52.102;5.776;2022-08-01T12:07:30;27.80;77.00
36990;DHT22;22898;52.102;5.776;2022-08-01T12:12:34;28.40;72.60
36990;DHT22;22898;52.102;5.776;2022-08-01T12:15:05;28.70;72.60
36990;DHT22;22898;52.102;5.776;2022-08-01T12:17:36;28.60;72.90
36990;DHT22;22898;52.102;5.776;2022-08-01T12:20:04;28.20;73.80
36990;DHT22;22898;52.102;5.776;2022-08-01T12:22:31;28.20;73.10
36990;DHT22;22898;52.102;5.776;2022-08-01T12:25:05;27.80;74.50
36990;DHT22;22898;52.102;5.776;2022-08-01T12:27:35;27.00;75.00
36990;DHT22;22898;52.102;5.776;2022-08-01T12:30:02;26.50;76.40
36990;DHT22;22898;52.102;5.776;2022-08-01T12:32:35;27.00;74.80
36990;DHT22;22898;52.102;5.776;2022-08-01T12:35:09;27.50;73.50
36990;DHT22;22898;52.102;5.776;2022-08-01T12:37:45;27.50;73.60
36990;DHT22;22898;52.102;5.776;2022-08-01T12:40:22;27.30;75.00
36990;DHT22;22898;52.102;5.776;2022-08-01T12:42:54;26.90;75.50
36990;DHT22;22898;52.102;5.776;2022-08-01T12:45:26;26.50;77.30
36990;DHT22;22898;52.102;5.776;2022-08-01T12:47:53;26.40;77.10
36990;DHT22;22898;52.102;5.776;2022-08-01T12:50:22;26.70;76.00
36990;DHT22;22898;52.102;5.776;2022-08-01T12:52:49;27.00;76.30
36990;DHT22;22898;52.102;5.776;2022-08-01T12:55:20;27.00;76.50
36990;DHT22;22898;52.102;5.776;2022-08-01T12:57:49;27.40;74.70
36990;DHT22;22898;52.102;5.776;2022-08-01T13:00:25;28.00;73.20
36990;DHT22;22898;52.102;5.776;2022-08-01T13:03:09;28.10;72.50
36990;DHT22;22898;52.102;5.776;2022-08-01T13:05:42;28.30;70.80
36990;DHT22;22898;52.102;5.776;2022-08-01T13:08:13;28.70;64.40
36990;DHT22;22898;52.102;5.776;2022-08-01T13:10:40;28.70;66.70
36990;DHT22;22898;52.102;5.776;2022-08-01T13:13:07;28.30;64.70
36990;DHT22;22898;52.102;5.776;2022-08-01T13:15:38;28.30;65.40
36990;DHT22;22898;52.102;5.776;2022-08-01T13:18:26;28.30;67.00
36990;DHT22;22898;52.102;5.776;2022-08-01T13:23:35;27.40;67.40
36990;DHT22;22898;52.102;5.776;2022-08-01T13:26:00;27.70;65.00
36990;DHT22;22898;52.102;5.776;2022-08-01T13:28:27;27.80;66.60
36990;DHT22;22898;52.102;5.776;2022-08-01T13:31:01;27.60;64.70
36990;DHT22;22898;52.102;5.776;2022-08-01T13:33:28;27.70;63.90
36990;DHT22;22898;52.102;5.776;2022-08-01T13:36:06;28.20;62.90
36990;DHT22;22898;52.102;5.776;2022-08-01T13:38:32;28.90;62.30
36990;DHT22;22898;52.102;5.776;2022-08-01T13:41:16;29.20;62.20
36990;DHT22;22898;52.102;5.776;2022-08-01T13:43:47;28.90;64.40
36990;DHT22;22898;52.102;5.776;2022-08-01T13:46:16;28.30;66.10
36990;DHT22;22898;52.102;5.776;2022-08-01T13:48:42;28.20;66.70
36990;DHT22;22898;52.102;5.776;2022-08-01T13:51:08;27.90;67.90
36990;DHT22;22898;52.102;5.776;2022-08-01T13:53:36;28.20;65.60
36990;DHT22;22898;52.102;5.776;2022-08-01T13:56:02;28.20;65.70
36990;DHT22;22898;52.102;5.776;2022-08-01T13:58:28;28.00;66.00
36990;DHT22;22898;52.102;5.776;2022-08-01T14:00:55;28.00;65.30
36990;DHT22;22898;52.102;5.776;2022-08-01T14:03:21;27.70;67.20
36990;DHT22;22898;52.102;5.776;2022-08-01T14:05:47;27.60;68.30
36990;DHT22;22898;52.102;5.776;2022-08-01T14:08:12;27.70;67.00
36990;DHT22;22898;52.102;5.776;2022-08-01T14:10:38;27.50;68.20
36990;DHT22;22898;52.102;5.776;2022-08-01T14:13:04;27.10;68.90
36990;DHT22;22898;52.102;5.776;2022-08-01T14:15:31;26.90;69.80
36990;DHT22;22898;52.102;5.776;2022-08-01T14:17:57;26.80;68.60
36990;DHT22;22898;52.102;5.776;2022-08-01T14:20:24;26.50;68.60
36990;DHT22;22898;52.102;5.776;2022-08-01T14:22:50;26.90;67.20
36990;DHT22;22898;52.102;5.776;2022-08-01T14:25:15;26.90;65.80
36990;DHT22;22898;52.102;5.776;2022-08-01T14:27:43;27.20;65.20
36990;DHT22;22898;52.102;5.776;2022-08-01T14:30:10;27.10;62.80
36990;DHT22;22898;52.102;5.776;2022-08-01T14:32:36;26.90;63.90
36990;DHT22;22898;52.102;5.776;2022-08-01T14:35:04;27.10;63.90
36990;DHT22;22898;52.102;5.776;2022-08-01T14:37:31;27.80;62.20
36990;DHT22;22898;52.102;5.776;2022-08-01T14:39:58;28.40;60.40
36990;DHT22;22898;52.102;5.776;2022-08-01T14:42:25;28.80;59.10
36990;DHT22;22898;52.102;5.776;2022-08-01T14:44:51;28.70;58.60
36990;DHT22;22898;52.102;5.776;2022-08-01T14:47:16;28.50;58.80
36990;DHT22;22898;52.102;5.776;2022-08-01T14:49:53;28.40;58.70
36990;DHT22;22898;52.102;5.776;2022-08-01T14:52:22;28.40;59.10
36990;DHT22;22898;52.102;5.776;2022-08-01T14:54:47;27.80;60.00
36990;DHT22;22898;52.102;5.776;2022-08-01T14:57:13;27.70;60.50
36990;DHT22;22898;52.102;5.776;2022-08-01T14:59:43;27.10;62.40
36990;DHT22;22898;52.102;5.776;2022-08-01T15:02:09;27.10;62.20
36990;DHT22;22898;52.102;5.776;2022-08-01T15:04:36;27.40;61.70
36990;DHT22;22898;52.102;5.776;2022-08-01T15:07:02;27.60;60.90
36990;DHT22;22898;52.102;5.776;2022-08-01T15:09:28;27.20;60.70
36990;DHT22;22898;52.102;5.776;2022-08-01T15:11:53;27.00;62.40
36990;DHT22;22898;52.102;5.776;2022-08-01T15:14:19;27.40;60.50
36990;DHT22;22898;52.102;5.776;2022-08-01T15:17:03;27.50;59.80
36990;DHT22;22898;52.102;5.776;2022-08-01T15:19:38;27.90;58.70
36990;DHT22;22898;52.102;5.776;2022-08-01T15:22:07;27.70;58.50
36990;DHT22;22898;52.102;5.776;2022-08-01T15:24:36;27.30;58.40
36990;DHT22;22898;52.102;5.776;2022-08-01T15:27:02;27.50;58.80
36990;DHT22;22898;52.102;5.776;2022-08-01T15:29:28;27.70;57.80
36990;DHT22;22898;52.102;5.776;2022-08-01T15:31:54;27.80;57.60
36990;DHT22;22898;52.102;5.776;2022-08-01T15:34:22;27.90;56.60
36990;DHT22;22898;52.102;5.776;2022-08-01T15:36:48;28.00;57.00
36990;DHT22;22898;52.102;5.776;2022-08-01T15:39:14;28.00;57.00
36990;DHT22;22898;52.102;5.776;2022-08-01T15:41:40;27.90;56.70
36990;DHT22;22898;52.102;5.776;2022-08-01T15:44:06;27.90;55.60
36990;DHT22;22898;52.102;5.776;2022-08-01T15:46:31;28.20;55.00
36990;DHT22;22898;52.102;5.776;2022-08-01T15:49:04;28.30;56.20
36990;DHT22;22898;52.102;5.776;2022-08-01T15:51:36;27.90;57.20
36990;DHT22;22898;52.102;5.776;2022-08-01T15:54:20;28.00;56.90
36990;DHT22;22898;52.102;5.776;2022-08-01T15:56:50;27.60;57.30
36990;DHT22;22898;52.102;5.776;2022-08-01T15:59:16;27.50;57.30
36990;DHT22;22898;52.102;5.776;2022-08-01T16:01:42;27.20;58.40
36990;DHT22;22898;52.102;5.776;2022-08-01T16:04:08;27.30;57.30
36990;DHT22;22898;52.102;5.776;2022-08-01T16:06:35;27.20;59.20
36990;DHT22;22898;52.102;5.776;2022-08-01T16:09:01;27.10;57.60
36990;DHT22;22898;52.102;5.776;2022-08-01T16:11:27;27.20;58.00
36990;DHT22;22898;52.102;5.776;2022-08-01T16:13:53;27.00;58.30
36990;DHT22;22898;52.102;5.776;2022-08-01T16:16:55;26.70;58.90
36990;DHT22;22898;52.102;5.776;2022-08-01T16:19:28;26.70;58.80
36990;DHT22;22898;52.102;5.776;2022-08-01T16:21:54;26.80;58.00
36990;DHT22;22898;52.102;5.776;2022-08-01T16:24:20;27.00;57.20
36990;DHT22;22898;52.102;5.776;2022-08-01T16:26:56;27.10;57.00
36990;DHT22;22898;52.102;5.776;2022-08-01T16:29:30;27.00;55.60
36990;DHT22;22898;52.102;5.776;2022-08-01T16:32:02;27.50;55.80
36990;DHT22;22898;52.102;5.776;2022-08-01T16:34:27;28.20;52.50
36990;DHT22;22898;52.102;5.776;2022-08-01T16:36:53;28.20;51.50
36990;DHT22;22898;52.102;5.776;2022-08-01T16:39:20;28.50;50.90
36990;DHT22;22898;52.102;5.776;2022-08-01T16:41:50;29.20;49.70
36990;DHT22;22898;52.102;5.776;2022-08-01T16:44:23;29.40;49.80
36990;DHT22;22898;52.102;5.776;2022-08-01T16:46:49;28.80;50.20
36990;DHT22;22898;52.102;5.776;2022-08-01T16:49:14;28.30;50.80
36990;DHT22;22898;52.102;5.776;2022-08-01T16:51:40;28.10;51.30
36990;DHT22;22898;52.102;5.776;2022-08-01T16:54:06;27.50;52.40
36990;DHT22;22898;52.102;5.776;2022-08-01T16:56:32;27.20;53.20
36990;DHT22;22898;52.102;5.776;2022-08-01T16:58:58;27.20;53.20
36990;DHT22;22898;52.102;5.776;2022-08-01T17:01:26;26.80;54.80
36990;DHT22;22898;52.102;5.776;2022-08-01T17:03:53;26.60;56.00
36990;DHT22;22898;52.102;5.776;2022-08-01T17:06:18;26.70;56.50
36990;DHT22;22898;52.102;5.776;2022-08-01T17:08:44;26.70;55.30
36990;DHT22;22898;52.102;5.776;2022-08-01T17:11:19;26.70;55.00
36990;DHT22;22898;52.102;5.776;2022-08-01T17:13:44;26.50;55.20
36990;DHT22;22898;52.102;5.776;2022-08-01T17:16:10;26.40;55.20
36990;DHT22;22898;52.102;5.776;2022-08-01T17:18:36;26.60;55.70
36990;DHT22;22898;52.102;5.776;2022-08-01T17:21:02;26.80;55.10
36990;DHT22;22898;52.102;5.776;2022-08-01T17:23:37;26.70;54.60
36990;DHT22;22898;52.102;5.776;2022-08-01T17:26:06;26.50;55.20
36990;DHT22;22898;52.102;5.776;2022-08-01T17:28:38;26.60;56.00
36990;DHT22;22898;52.102;5.776;2022-08-01T17:31:05;26.60;55.00
36990;DHT22;22898;52.102;5.776;2022-08-01T17:33:34;26.80;54.00
36990;DHT22;22898;52.102;5.776;2022-08-01T17:36:00;26.80;53.30
36990;DHT22;22898;52.102;5.776;2022-08-01T17:38:26;26.40;53.60
36990;DHT22;22898;52.102;5.776;2022-08-01T17:40:55;26.40;52.60
36990;DHT22;22898;52.102;5.776;2022-08-01T17:43:21;26.20;53.50
36990;DHT22;22898;52.102;5.776;2022-08-01T17:45:46;26.30;53.30
36990;DHT22;22898;52.102;5.776;2022-08-01T17:48:12;26.70;53.50
36990;DHT22;22898;52.102;5.776;2022-08-01T17:50:44;26.70;53.50
36990;DHT22;22898;52.102;5.776;2022-08-01T17:53:11;26.90;53.80
36990;DHT22;22898;52.102;5.776;2022-08-01T17:55:37;26.90;53.60
36990;DHT22;22898;52.102;5.776;2022-08-01T17:58:06;26.70;53.20
36990;DHT22;22898;52.102;5.776;2022-08-01T18:00:32;26.80;53.60
36990;DHT22;22898;52.102;5.776;2022-08-01T18:02:59;27.00;53.90